sensor_id;sensor_type;location;lat;lon;timestamp;pressure;altitude;pressure_sealevel;temperature;humidity
74615;BME280;63121;51.458;-0.110;2022-11-25T00:01:06;100321.19;;;19.89;61.07
74615;BME280;63121;51.458;-0.110;2022-11-25T00:03:32;100324.66;;;19.90;61.21
74615;BME280;63121;51.458;-0.110;2022-11-25T00:08:49;100327.03;;;19.95;60.93
74615;BME280;63121;51.458;-0.110;2022-11-25T00:11:16;100323.66;;;19.93;61.50
74615;BME280;63121;51.458;-0.110;2022-11-25T00:13:43;100310.56;;;19.93;60.95
74615;BME280;63121;51.458;-0.110;2022-11-25T00:16:12;100326.28;;;19.93;60.24
74615;BME280;63121;51.458;-0.110;2022-11-25T00:18:38;100326.09;;;19.96;60.33
74615;BME280;63121;51.458;-0.110;2022-11-25T00:21:09;100314.59;;;19.98;60.56
74615;BME280;63121;51.458;-0.110;2022-11-25T00:23:35;100318.91;;;19.99;59.69
74615;BME280;63121;51.458;-0.110;2022-11-25T00:26:09;100314.59;;;19.98;59.79
74615;BME280;63121;51.458;-0.110;2022-11-25T00:28:35;100315.53;;;19.97;60.06
74615;BME280;63121;51.458;-0.110;2022-11-25T00:31:07;100316.09;;;20.02;59.96
74615;BME280;63121;51.458;-0.110;2022-11-25T00:33:33;100310.03;;;20.02;59.30
74615;BME280;63121;51.458;-0.110;2022-11-25T00:36:03;100310.88;;;20.02;59.58
74615;BME280;63121;51.458;-0.110;2022-11-25T00:38:28;100312.72;;;20.00;59.67
74615;BME280;63121;51.458;-0.110;2022-11-25T00:40:54;100316.22;;;20.01;59.56
74615;BME280;63121;51.458;-0.110;2022-11-25T00:43:38;100317.88;;;20.02;59.99
74615;BME280;63121;51.458;-0.110;2022-11-25T00:46:22;100318.84;;;20.01;58.96
74615;BME280;63121;51.458;-0.110;2022-11-25T00:48:47;100314.34;;;20.03;58.87
74615;BME280;63121;51.458;-0.110;2022-11-25T00:51:12;100319.47;;;20.04;58.54
74615;BME280;63121;51.458;-0.110;2022-11-25T00:53:38;100322.03;;;20.06;59.50
74615;BME280;63121;51.458;-0.110;2022-11-25T00:56:03;100324.56;;;20.07;58.88
74615;BME280;63121;51.458;-0.110;2022-11-25T00:58:42;100330.44;;;20.11;59.02
74615;BME280;63121;51.458;-0.110;2022-11-25T01:01:08;100336.56;;;20.12;58.68
74615;BME280;63121;51.458;-0.110;2022-11-25T01:03:34;100340.69;;;20.16;58.30
74615;BME280;63121;51.458;-0.110;2022-11-25T01:06:05;100336.09;;;20.19;58.34
74615;BME280;63121;51.458;-0.110;2022-11-25T01:08:32;100340.78;;;20.14;58.28
74615;BME280;63121;51.458;-0.110;2022-11-25T01:11:02;100339.00;;;20.15;58.22
74615;BME280;63121;51.458;-0.110;2022-11-25T01:13:27;100343.41;;;20.14;58.32
74615;BME280;63121;51.458;-0.110;2022-11-25T01:15:53;100348.44;;;20.17;58.22
74615;BME280;63121;51.458;-0.110;2022-11-25T01:18:18;100348.56;;;20.16;57.54
74615;BME280;63121;51.458;-0.110;2022-11-25T01:20:44;100356.41;;;20.16;57.70
74615;BME280;63121;51.458;-0.110;2022-11-25T01:23:09;100357.06;;;20.19;57.77
74615;BME280;63121;51.458;-0.110;2022-11-25T01:25:38;100375.34;;;20.21;57.35
74615;BME280;63121;51.458;-0.110;2022-11-25T01:28:04;100370.16;;;20.19;58.47
74615;BME280;63121;51.458;-0.110;2022-11-25T01:30:30;100376.28;;;20.20;58.17
74615;BME280;63121;51.458;-0.110;2022-11-25T01:32:56;100372.72;;;20.21;57.47
74615;BME280;63121;51.458;-0.110;2022-11-25T01:35:21;100371.88;;;20.20;56.58
74615;BME280;63121;51.458;-0.110;2022-11-25T01:37:46;100377.97;;;20.21;56.79
74615;BME280;63121;51.458;-0.110;2022-11-25T01:40:12;100392.78;;;20.22;57.40
74615;BME280;63121;51.458;-0.110;2022-11-25T01:42:45;100392.56;;;20.25;56.47
74615;BME280;63121;51.458;-0.110;2022-11-25T01:47:56;100392.56;;;20.25;58.66
74615;BME280;63121;51.458;-0.110;2022-11-25T01:50:23;100403.81;;;20.27;58.63
74615;BME280;63121;51.458;-0.110;2022-11-25T01:52:52;100411.59;;;20.28;57.42
74615;BME280;63121;51.458;-0.110;2022-11-25T01:55:23;100418.44;;;20.31;56.22
74615;BME280;63121;51.458;-0.110;2022-11-25T01:58:06;100416.50;;;20.35;56.42
74615;BME280;63121;51.458;-0.110;2022-11-25T02:00:32;100410.59;;;20.31;58.03
74615;BME280;63121;51.458;-0.110;2022-11-25T02:02:58;100421.81;;;20.33;56.40
74615;BME280;63121;51.458;-0.110;2022-11-25T02:07:59;100431.38;;;20.34;56.93
74615;BME280;63121;51.458;-0.110;2022-11-25T02:10:27;100427.81;;;20.35;56.71
74615;BME280;63121;51.458;-0.110;2022-11-25T02:12:53;100429.50;;;20.36;56.18
74615;BME280;63121;51.458;-0.110;2022-11-25T02:15:19;100430.38;;;20.37;55.63
74615;BME280;63121;51.458;-0.110;2022-11-25T02:17:45;100434.66;;;20.38;56.53
74615;BME280;63121;51.458;-0.110;2022-11-25T02:20:13;100446.00;;;20.38;56.80
74615;BME280;63121;51.458;-0.110;2022-11-25T02:25:50;100456.31;;;20.41;55.46
74615;BME280;63121;51.458;-0.110;2022-11-25T02:28:19;100456.31;;;20.41;55.82
74615;BME280;63121;51.458;-0.110;2022-11-25T02:30:45;100465.22;;;20.39;56.42
74615;BME280;63121;51.458;-0.110;2022-11-25T02:33:11;100463.44;;;20.39;55.46
74615;BME280;63121;51.458;-0.110;2022-11-25T02:35:50;100463.44;;;20.39;56.64
74615;BME280;63121;51.458;-0.110;2022-11-25T02:38:23;100467.72;;;20.40;55.72
74615;BME280;63121;51.458;-0.110;2022-11-25T02:41:01;100467.72;;;20.40;55.87
74615;BME280;63121;51.458;-0.110;2022-11-25T02:43:29;100470.53;;;20.37;55.99
74615;BME280;63121;51.458;-0.110;2022-11-25T02:46:19;100472.41;;;20.35;55.30
74615;BME280;63121;51.458;-0.110;2022-11-25T02:48:45;100471.63;;;20.33;55.70
74615;BME280;63121;51.458;-0.110;2022-11-25T02:51:13;100476.88;;;20.33;55.28
74615;BME280;63121;51.458;-0.110;2022-11-25T02:53:40;100482.19;;;20.31;55.80
74615;BME280;63121;51.458;-0.110;2022-11-25T02:56:06;100477.13;;;20.28;55.80
74615;BME280;63121;51.458;-0.110;2022-11-25T02:58:31;100485.06;;;20.27;55.87
74615;BME280;63121;51.458;-0.110;2022-11-25T03:00:57;100481.78;;;20.23;55.59
74615;BME280;63121;51.458;-0.110;2022-11-25T03:03:22;100485.25;;;20.24;55.74
74615;BME280;63121;51.458;-0.110;2022-11-25T03:05:48;100494.88;;;20.23;55.85
74615;BME280;63121;51.458;-0.110;2022-11-25T03:08:13;100501.81;;;20.24;56.06
74615;BME280;63121;51.458;-0.110;2022-11-25T03:10:39;100505.28;;;20.25;56.09
74615;BME280;63121;51.458;-0.110;2022-11-25T03:13:07;100512.31;;;20.24;55.79
74615;BME280;63121;51.458;-0.110;2022-11-25T03:15:33;100523.88;;;20.20;56.10
74615;BME280;63121;51.458;-0.110;2022-11-25T03:17:59;100520.75;;;20.14;56.04
74615;BME280;63121;51.458;-0.110;2022-11-25T03:20:24;100520.84;;;20.12;55.55
74615;BME280;63121;51.458;-0.110;2022-11-25T03:22:50;100530.31;;;20.15;55.50
74615;BME280;63121;51.458;-0.110;2022-11-25T03:25:15;100535.28;;;20.19;55.33
74615;BME280;63121;51.458;-0.110;2022-11-25T03:27:41;100535.41;;;20.18;54.79
74615;BME280;63121;51.458;-0.110;2022-11-25T03:30:09;100541.53;;;20.17;56.00
74615;BME280;63121;51.458;-0.110;2022-11-25T03:32:35;100540.78;;;20.15;56.05
74615;BME280;63121;51.458;-0.110;2022-11-25T03:35:00;100546.03;;;20.15;55.89
74615;BME280;63121;51.458;-0.110;2022-11-25T03:37:26;100549.59;;;20.14;56.21
74615;BME280;63121;51.458;-0.110;2022-11-25T03:39:51;100546.78;;;20.17;55.91
74615;BME280;63121;51.458;-0.110;2022-11-25T03:42:17;100550.19;;;20.19;55.83
74615;BME280;63121;51.458;-0.110;2022-11-25T03:44:42;100549.41;;;20.17;55.34
74615;BME280;63121;51.458;-0.110;2022-11-25T03:47:07;100556.59;;;20.13;55.01
74615;BME280;63121;51.458;-0.110;2022-11-25T03:49:33;100559.63;;;20.05;56.65
74615;BME280;63121;51.458;-0.110;2022-11-25T03:51:58;100561.56;;;20.02;56.60
74615;BME280;63121;51.458;-0.110;2022-11-25T03:54:24;100565.19;;;19.99;56.38
74615;BME280;63121;51.458;-0.110;2022-11-25T03:56:49;100568.84;;;19.97;56.39
74615;BME280;63121;51.458;-0.110;2022-11-25T03:59:15;100576.00;;;19.93;56.28
74615;BME280;63121;51.458;-0.110;2022-11-25T04:01:40;100584.69;;;19.94;56.72
74615;BME280;63121;51.458;-0.110;2022-11-25T04:04:06;100588.25;;;19.93;56.42
74615;BME280;63121;51.458;-0.110;2022-11-25T04:06:31;100596.94;;;19.93;56.53
74615;BME280;63121;51.458;-0.110;2022-11-25T04:08:57;100592.63;;;19.92;56.34
74615;BME280;63121;51.458;-0.110;2022-11-25T04:11:22;100603.88;;;19.94;56.65
74615;BME280;63121;51.458;-0.110;2022-11-25T04:14:08;100608.19;;;19.95;56.33
74615;BME280;63121;51.458;-0.110;2022-11-25T04:16:33;100612.50;;;19.96;56.50
74615;BME280;63121;51.458;-0.110;2022-11-25T04:18:59;100611.06;;;19.90;56.71
74615;BME280;63121;51.458;-0.110;2022-11-25T04:21:24;100608.34;;;19.92;56.28
74615;BME280;63121;51.458;-0.110;2022-11-25T04:23:49;100612.91;;;19.88;56.57
74615;BME280;63121;51.458;-0.110;2022-11-25T04:26:15;100623.28;;;19.90;56.66
74615;BME280;63121;51.458;-0.110;2022-11-25T04:28:40;100625.91;;;19.90;56.80
74615;BME280;63121;51.458;-0.110;2022-11-25T04:31:06;100629.41;;;19.90;56.30
74615;BME280;63121;51.458;-0.110;2022-11-25T04:33:32;100629.41;;;19.90;56.91
74615;BME280;63121;51.458;-0.110;2022-11-25T04:35:57;100639.94;;;19.89;55.90
74615;BME280;63121;51.458;-0.110;2022-11-25T04:38:22;100647.03;;;19.87;56.94
74615;BME280;63121;51.458;-0.110;2022-11-25T04:40:48;100646.09;;;19.88;56.71
74615;BME280;63121;51.458;-0.110;2022-11-25T04:43:13;100650.44;;;19.89;56.96
74615;BME280;63121;51.458;-0.110;2022-11-25T04:45:39;100653.97;;;19.88;57.56
74615;BME280;63121;51.458;-0.110;2022-11-25T04:48:04;100656.69;;;19.86;56.23
74615;BME280;63121;51.458;-0.110;2022-11-25T04:50:30;100665.31;;;19.88;56.14
74615;BME280;63121;51.458;-0.110;2022-11-25T04:52:55;100665.38;;;19.87;56.89
74615;BME280;63121;51.458;-0.110;2022-11-25T04:55:20;100676.69;;;19.87;55.78
74615;BME280;63121;51.458;-0.110;2022-11-25T04:57:46;100684.66;;;19.86;56.40
74615;BME280;63121;51.458;-0.110;2022-11-25T05:00:11;100684.66;;;19.86;55.94
74615;BME280;63121;51.458;-0.110;2022-11-25T05:02:37;100691.66;;;19.85;56.47
74615;BME280;63121;51.458;-0.110;2022-11-25T05:05:03;100694.38;;;19.84;55.93
74615;BME280;63121;51.458;-0.110;2022-11-25T05:07:29;100704.75;;;19.85;56.04
74615;BME280;63121;51.458;-0.110;2022-11-25T05:09:55;100703.84;;;19.86;56.30
74615;BME280;63121;51.458;-0.110;2022-11-25T05:12:24;100720.41;;;19.87;56.38
74615;BME280;63121;51.458;-0.110;2022-11-25T05:14:49;100721.34;;;19.86;56.71
74615;BME280;63121;51.458;-0.110;2022-11-25T05:17:20;100726.63;;;19.84;56.03
74615;BME280;63121;51.458;-0.110;2022-11-25T05:19:45;100732.72;;;19.85;56.88
74615;BME280;63121;51.458;-0.110;2022-11-25T05:22:23;100733.56;;;19.85;55.88
74615;BME280;63121;51.458;-0.110;2022-11-25T05:24:49;100738.72;;;19.87;56.24
74615;BME280;63121;51.458;-0.110;2022-11-25T05:27:15;100750.16;;;19.86;56.43
74615;BME280;63121;51.458;-0.110;2022-11-25T05:29:41;100744.91;;;19.86;55.87
74615;BME280;63121;51.458;-0.110;2022-11-25T05:32:07;100748.50;;;19.83;56.18
74615;BME280;63121;51.458;-0.110;2022-11-25T05:34:33;100758.06;;;19.84;56.34
74615;BME280;63121;51.458;-0.110;2022-11-25T05:36:59;100760.63;;;19.86;56.34
74615;BME280;63121;51.458;-0.110;2022-11-25T05:39:24;100763.38;;;19.83;55.63
74615;BME280;63121;51.458;-0.110;2022-11-25T05:41:50;100770.34;;;19.84;55.76
74615;BME280;63121;51.458;-0.110;2022-11-25T05:44:15;100762.38;;;19.85;55.90
74615;BME280;63121;51.458;-0.110;2022-11-25T05:46:46;100772.94;;;19.84;55.50
74615;BME280;63121;51.458;-0.110;2022-11-25T05:49:13;100773.84;;;19.83;56.24
74615;BME280;63121;51.458;-0.110;2022-11-25T05:51:38;100774.47;;;19.88;55.92
74615;BME280;63121;51.458;-0.110;2022-11-25T05:54:04;100784.28;;;19.84;56.07
74615;BME280;63121;51.458;-0.110;2022-11-25T05:56:29;100776.47;;;19.83;56.01
74615;BME280;63121;51.458;-0.110;2022-11-25T05:58:55;100789.56;;;19.83;56.21
74615;BME280;63121;51.458;-0.110;2022-11-25T06:01:20;100785.34;;;19.80;55.66
74615;BME280;63121;51.458;-0.110;2022-11-25T06:03:47;100806.22;;;19.82;55.82
74615;BME280;63121;51.458;-0.110;2022-11-25T06:06:12;100810.47;;;19.84;55.73
74615;BME280;63121;51.458;-0.110;2022-11-25T06:08:38;100814.00;;;19.83;55.95
74615;BME280;63121;51.458;-0.110;2022-11-25T06:11:09;100824.41;;;19.85;55.67
74615;BME280;63121;51.458;-0.110;2022-11-25T06:13:36;100835.03;;;19.82;55.96
74615;BME280;63121;51.458;-0.110;2022-11-25T06:16:09;100850.84;;;19.80;56.17
74615;BME280;63121;51.458;-0.110;2022-11-25T06:18:36;100861.31;;;19.80;55.83
74615;BME280;63121;51.458;-0.110;2022-11-25T06:21:02;100859.69;;;19.78;56.03
74615;BME280;63121;51.458;-0.110;2022-11-25T06:23:28;100875.31;;;19.79;56.10
74615;BME280;63121;51.458;-0.110;2022-11-25T06:25:53;100880.34;;;19.84;55.68
74615;BME280;63121;51.458;-0.110;2022-11-25T06:28:19;100884.81;;;19.82;56.06
74615;BME280;63121;51.458;-0.110;2022-11-25T06:30:44;100888.34;;;19.81;55.62
74615;BME280;63121;51.458;-0.110;2022-11-25T06:33:10;100897.91;;;19.82;56.23
74615;BME280;63121;51.458;-0.110;2022-11-25T06:35:35;100899.59;;;19.83;55.51
74615;BME280;63121;51.458;-0.110;2022-11-25T06:38:01;100900.59;;;19.80;56.07
74615;BME280;63121;51.458;-0.110;2022-11-25T06:40:26;100901.38;;;19.82;56.02
74615;BME280;63121;51.458;-0.110;2022-11-25T06:42:51;100915.47;;;19.80;54.96
74615;BME280;63121;51.458;-0.110;2022-11-25T06:45:17;100920.72;;;19.80;55.74
74615;BME280;63121;51.458;-0.110;2022-11-25T06:47:42;100926.72;;;19.82;55.44
74615;BME280;63121;51.458;-0.110;2022-11-25T06:50:08;100927.69;;;19.79;55.81
74615;BME280;63121;51.458;-0.110;2022-11-25T06:52:33;100943.28;;;19.82;55.33
74615;BME280;63121;51.458;-0.110;2022-11-25T06:54:59;100946.75;;;19.83;55.39
74615;BME280;63121;51.458;-0.110;2022-11-25T06:57:24;100941.66;;;19.80;55.65
74615;BME280;63121;51.458;-0.110;2022-11-25T06:59:50;100953.91;;;19.79;55.28
74615;BME280;63121;51.458;-0.110;2022-11-25T07:02:15;100959.13;;;19.79;55.76
74615;BME280;63121;51.458;-0.110;2022-11-25T07:04:41;100955.72;;;19.77;55.12
74615;BME280;63121;51.458;-0.110;2022-11-25T07:07:06;100973.22;;;19.77;55.98
74615;BME280;63121;51.458;-0.110;2022-11-25T07:09:32;100976.63;;;19.79;55.50
74615;BME280;63121;51.458;-0.110;2022-11-25T07:11:57;100983.66;;;19.78;55.51
74615;BME280;63121;51.458;-0.110;2022-11-25T07:14:23;100994.19;;;19.77;55.62
74615;BME280;63121;51.458;-0.110;2022-11-25T07:16:48;100994.19;;;19.77;55.32
74615;BME280;63121;51.458;-0.110;2022-11-25T07:19:15;100996.03;;;19.75;55.77
74615;BME280;63121;51.458;-0.110;2022-11-25T07:21:41;101008.22;;;19.76;55.58
74615;BME280;63121;51.458;-0.110;2022-11-25T07:24:09;101019.53;;;19.76;55.82
74615;BME280;63121;51.458;-0.110;2022-11-25T07:26:37;101023.06;;;19.75;56.06
74615;BME280;63121;51.458;-0.110;2022-11-25T07:29:05;101021.38;;;19.74;55.62
74615;BME280;63121;51.458;-0.110;2022-11-25T07:31:32;101024.72;;;19.78;55.88
74615;BME280;63121;51.458;-0.110;2022-11-25T07:34:06;101041.34;;;19.77;54.93
74615;BME280;63121;51.458;-0.110;2022-11-25T07:36:36;101047.41;;;19.77;55.58
74615;BME280;63121;51.458;-0.110;2022-11-25T07:39:05;101055.28;;;19.77;55.22
74615;BME280;63121;51.458;-0.110;2022-11-25T07:41:31;101058.88;;;19.75;55.40
74615;BME280;63121;51.458;-0.110;2022-11-25T07:44:03;101071.19;;;19.73;55.55
74615;BME280;63121;51.458;-0.110;2022-11-25T07:46:31;101074.75;;;19.72;55.16
74615;BME280;63121;51.458;-0.110;2022-11-25T07:48:59;101086.91;;;19.73;55.81
74615;BME280;63121;51.458;-0.110;2022-11-25T07:51:31;101097.38;;;19.73;55.31
74615;BME280;63121;51.458;-0.110;2022-11-25T07:53:58;101100.84;;;19.73;55.11
74615;BME280;63121;51.458;-0.110;2022-11-25T07:56:25;101109.59;;;19.74;55.33
74615;BME280;63121;51.458;-0.110;2022-11-25T07:58:51;101117.34;;;19.75;55.18
74615;BME280;63121;51.458;-0.110;2022-11-25T08:01:17;101119.28;;;19.72;55.28
74615;BME280;63121;51.458;-0.110;2022-11-25T08:03:44;101135.91;;;19.69;55.30
74615;BME280;63121;51.458;-0.110;2022-11-25T08:06:12;101139.34;;;19.71;55.50
74615;BME280;63121;51.458;-0.110;2022-11-25T08:08:40;101139.34;;;19.71;55.22
74615;BME280;63121;51.458;-0.110;2022-11-25T08:11:10;101143.75;;;19.70;55.35
74615;BME280;63121;51.458;-0.110;2022-11-25T08:13:36;101149.94;;;19.68;55.72
74615;BME280;63121;51.458;-0.110;2022-11-25T08:16:02;101164.72;;;19.69;55.18
74615;BME280;63121;51.458;-0.110;2022-11-25T08:18:28;101162.13;;;19.69;55.33
74615;BME280;63121;51.458;-0.110;2022-11-25T08:21:04;101176.97;;;19.68;54.73
74615;BME280;63121;51.458;-0.110;2022-11-25T08:23:33;101174.38;;;19.68;55.36
74615;BME280;63121;51.458;-0.110;2022-11-25T08:26:13;101182.22;;;19.68;55.61
74615;BME280;63121;51.458;-0.110;2022-11-25T08:28:39;101192.69;;;19.70;55.75
74615;BME280;63121;51.458;-0.110;2022-11-25T08:31:07;101194.41;;;19.69;55.84
74615;BME280;63121;51.458;-0.110;2022-11-25T08:33:33;101194.41;;;19.69;55.43
74615;BME280;63121;51.458;-0.110;2022-11-25T08:35:59;101197.94;;;19.68;55.14
74615;BME280;63121;51.458;-0.110;2022-11-25T08:38:25;101211.03;;;19.68;55.48
74615;BME280;63121;51.458;-0.110;2022-11-25T08:40:51;101215.47;;;19.66;55.65
74615;BME280;63121;51.458;-0.110;2022-11-25T08:43:16;101226.03;;;19.65;55.33
74615;BME280;63121;51.458;-0.110;2022-11-25T08:45:42;101227.13;;;19.59;55.11
74615;BME280;63121;51.458;-0.110;2022-11-25T08:48:08;101222.78;;;19.58;55.03
74615;BME280;63121;51.458;-0.110;2022-11-25T08:50:33;101243.69;;;19.60;54.97
74615;BME280;63121;51.458;-0.110;2022-11-25T08:52:59;101248.97;;;19.58;55.44
74615;BME280;63121;51.458;-0.110;2022-11-25T08:55:25;101252.47;;;19.59;55.85
74615;BME280;63121;51.458;-0.110;2022-11-25T08:57:52;101264.03;;;19.53;55.34
74615;BME280;63121;51.458;-0.110;2022-11-25T09:00:18;101265.69;;;19.56;55.13
74615;BME280;63121;51.458;-0.110;2022-11-25T09:02:43;101284.81;;;19.58;55.08
74615;BME280;63121;51.458;-0.110;2022-11-25T09:05:13;101282.25;;;19.56;55.79
74615;BME280;63121;51.458;-0.110;2022-11-25T09:07:40;101297.09;;;19.56;55.09
74615;BME280;63121;51.458;-0.110;2022-11-25T09:10:07;101310.25;;;19.54;55.78
74615;BME280;63121;51.458;-0.110;2022-11-25T09:12:33;101300.66;;;19.55;55.46
74615;BME280;63121;51.458;-0.110;2022-11-25T09:14:59;101313.56;;;19.59;55.08
74615;BME280;63121;51.458;-0.110;2022-11-25T09:17:24;101319.69;;;19.58;55.22
74615;BME280;63121;51.458;-0.110;2022-11-25T09:19:50;101330.16;;;19.58;55.16
74615;BME280;63121;51.458;-0.110;2022-11-25T09:22:15;101333.66;;;19.59;55.16
74615;BME280;63121;51.458;-0.110;2022-11-25T09:24:40;101335.41;;;19.58;54.84
74615;BME280;63121;51.458;-0.110;2022-11-25T09:27:07;101333.72;;;19.57;54.92
74615;BME280;63121;51.458;-0.110;2022-11-25T09:29:33;101339.81;;;19.58;54.48
74615;BME280;63121;51.458;-0.110;2022-11-25T09:31:58;101344.16;;;19.59;54.78
74615;BME280;63121;51.458;-0.110;2022-11-25T09:34:23;101354.53;;;19.60;54.44
74615;BME280;63121;51.458;-0.110;2022-11-25T09:36:49;101358.09;;;19.59;55.23
74615;BME280;63121;51.458;-0.110;2022-11-25T09:39:14;101362.41;;;19.60;55.08
74615;BME280;63121;51.458;-0.110;2022-11-25T09:41:52;101373.75;;;19.61;54.69
74615;BME280;63121;51.458;-0.110;2022-11-25T09:44:57;101376.38;;;19.61;55.28
74615;BME280;63121;51.458;-0.110;2022-11-25T09:56:02;101386.75;;;19.62;54.76
74615;BME280;63121;51.458;-0.110;2022-11-25T09:58:36;101396.34;;;19.63;54.63
74615;BME280;63121;51.458;-0.110;2022-11-25T10:01:06;101404.19;;;19.63;54.97
74615;BME280;63121;51.458;-0.110;2022-11-25T10:03:41;101406.03;;;19.61;55.57
74615;BME280;63121;51.458;-0.110;2022-11-25T10:06:25;101411.22;;;19.63;54.39
74615;BME280;63121;51.458;-0.110;2022-11-25T10:08:55;101412.09;;;19.62;54.76
74615;BME280;63121;51.458;-0.110;2022-11-25T10:11:53;101421.75;;;19.61;55.33
74615;BME280;63121;51.458;-0.110;2022-11-25T10:14:29;101419.78;;;19.66;55.22
74615;BME280;63121;51.458;-0.110;2022-11-25T10:17:17;101424.66;;;19.77;54.82
74615;BME280;63121;51.458;-0.110;2022-11-25T10:22:41;101433.63;;;19.94;53.91
74615;BME280;63121;51.458;-0.110;2022-11-25T10:25:22;101438.63;;;20.00;54.10
74615;BME280;63121;51.458;-0.110;2022-11-25T10:27:55;101434.00;;;20.06;54.03
74615;BME280;63121;51.458;-0.110;2022-11-25T10:30:23;101436.31;;;20.14;53.77
74615;BME280;63121;51.458;-0.110;2022-11-25T10:32:58;101437.97;;;20.17;54.08
74615;BME280;63121;51.458;-0.110;2022-11-25T10:35:35;101436.81;;;20.24;53.93
74615;BME280;63121;51.458;-0.110;2022-11-25T10:38:05;101447.00;;;20.31;53.05
74615;BME280;63121;51.458;-0.110;2022-11-25T10:40:35;101435.47;;;20.36;53.71
74615;BME280;63121;51.458;-0.110;2022-11-25T10:43:04;101439.63;;;20.41;53.81
74615;BME280;63121;51.458;-0.110;2022-11-25T10:45:51;101452.47;;;20.47;53.36
74615;BME280;63121;51.458;-0.110;2022-11-25T10:51:45;101452.09;;;20.57;53.14
74615;BME280;63121;51.458;-0.110;2022-11-25T10:54:12;101449.31;;;20.61;53.16
74615;BME280;63121;51.458;-0.110;2022-11-25T10:56:42;101442.13;;;20.66;53.19
74615;BME280;63121;51.458;-0.110;2022-11-25T10:59:22;101451.56;;;20.70;53.29
74615;BME280;63121;51.458;-0.110;2022-11-25T11:01:50;101455.78;;;20.75;53.63
74615;BME280;63121;51.458;-0.110;2022-11-25T11:04:15;101458.25;;;20.78;53.50
74615;BME280;63121;51.458;-0.110;2022-11-25T11:06:45;101458.06;;;20.82;53.89
74615;BME280;63121;51.458;-0.110;2022-11-25T11:09:32;101454.44;;;20.85;53.37
74615;BME280;63121;51.458;-0.110;2022-11-25T11:14:37;101470.91;;;20.88;53.49
74615;BME280;63121;51.458;-0.110;2022-11-25T11:17:03;101474.28;;;20.92;53.79
74615;BME280;63121;51.458;-0.110;2022-11-25T11:19:29;101475.91;;;20.95;54.09
74615;BME280;63121;51.458;-0.110;2022-11-25T11:21:55;101483.53;;;21.01;53.26
74615;BME280;63121;51.458;-0.110;2022-11-25T11:24:41;101484.47;;;21.00;53.23
74615;BME280;63121;51.458;-0.110;2022-11-25T11:27:22;101488.78;;;21.01;53.43
74615;BME280;63121;51.458;-0.110;2022-11-25T11:30:13;101485.22;;;21.02;53.26
74615;BME280;63121;51.458;-0.110;2022-11-25T11:32:42;101495.66;;;21.03;53.25
74615;BME280;63121;51.458;-0.110;2022-11-25T11:35:22;101492.19;;;21.03;53.40
74615;BME280;63121;51.458;-0.110;2022-11-25T11:37:55;101496.69;;;20.99;53.19
74615;BME280;63121;51.458;-0.110;2022-11-25T11:40:38;101505.38;;;21.01;53.31
74615;BME280;63121;51.458;-0.110;2022-11-25T11:45:44;101493.97;;;21.02;53.40
74615;BME280;63121;51.458;-0.110;2022-11-25T11:48:25;101514.03;;;21.03;53.70
74615;BME280;63121;51.458;-0.110;2022-11-25T11:56:46;101526.47;;;21.00;53.58
74615;BME280;63121;51.458;-0.110;2022-11-25T12:07:26;101540.47;;;20.99;53.06
74615;BME280;63121;51.458;-0.110;2022-11-25T12:13:11;101551.13;;;20.96;53.77
74615;BME280;63121;51.458;-0.110;2022-11-25T12:18:19;101559.00;;;20.96;53.35
74615;BME280;63121;51.458;-0.110;2022-11-25T12:20:58;101559.91;;;20.95;52.90
74615;BME280;63121;51.458;-0.110;2022-11-25T12:23:57;101564.34;;;20.92;53.65
74615;BME280;63121;51.458;-0.110;2022-11-25T12:29:01;101571.38;;;20.92;53.34
74615;BME280;63121;51.458;-0.110;2022-11-25T12:31:44;101579.25;;;20.92;53.30
74615;BME280;63121;51.458;-0.110;2022-11-25T12:34:43;101596.66;;;20.95;52.98
74615;BME280;63121;51.458;-0.110;2022-11-25T12:37:20;101585.31;;;20.94;53.05
74615;BME280;63121;51.458;-0.110;2022-11-25T12:40:15;101593.13;;;20.96;53.57
74615;BME280;63121;51.458;-0.110;2022-11-25T12:42:43;101601.00;;;20.96;53.33
74615;BME280;63121;51.458;-0.110;2022-11-25T12:45:23;101600.91;;;20.97;53.17
74615;BME280;63121;51.458;-0.110;2022-11-25T12:47:50;101610.63;;;20.95;53.17
74615;BME280;63121;51.458;-0.110;2022-11-25T12:50:22;101618.44;;;20.97;53.01
74615;BME280;63121;51.458;-0.110;2022-11-25T12:55:32;101635.13;;;20.96;53.07
74615;BME280;63121;51.458;-0.110;2022-11-25T12:58:21;101644.63;;;20.98;53.40
74615;BME280;63121;51.458;-0.110;2022-11-25T13:09:50;101640.88;;;21.04;52.64
74615;BME280;63121;51.458;-0.110;2022-11-25T13:15:28;101637.34;;;21.05;51.93
74615;BME280;63121;51.458;-0.110;2022-11-25T13:18:00;101643.50;;;21.04;52.15
74615;BME280;63121;51.458;-0.110;2022-11-25T13:25:36;101644.38;;;21.04;52.36
74615;BME280;63121;51.458;-0.110;2022-11-25T13:28:04;101654.09;;;21.02;52.84
74615;BME280;63121;51.458;-0.110;2022-11-25T13:33:53;101657.31;;;21.09;52.20
74615;BME280;63121;51.458;-0.110;2022-11-25T13:36:18;101663.47;;;21.08;51.89
74615;BME280;63121;51.458;-0.110;2022-11-25T13:49:00;101696.75;;;21.07;51.37
74615;BME280;63121;51.458;-0.110;2022-11-25T13:51:26;101695.06;;;21.06;52.08
74615;BME280;63121;51.458;-0.110;2022-11-25T13:53:54;101697.75;;;21.05;51.75
74615;BME280;63121;51.458;-0.110;2022-11-25T14:01:51;101717.81;;;21.06;52.22
74615;BME280;63121;51.458;-0.110;2022-11-25T14:04:23;101716.13;;;21.05;52.46
74615;BME280;63121;51.458;-0.110;2022-11-25T14:09:48;101715.31;;;21.03;52.16
74615;BME280;63121;51.458;-0.110;2022-11-25T14:15:34;101725.78;;;21.04;51.84
74615;BME280;63121;51.458;-0.110;2022-11-25T14:21:05;101735.47;;;21.02;52.69
74615;BME280;63121;51.458;-0.110;2022-11-25T14:26:15;101740.72;;;21.02;52.40
74615;BME280;63121;51.458;-0.110;2022-11-25T14:28:55;101740.72;;;21.02;52.83
74615;BME280;63121;51.458;-0.110;2022-11-25T14:31:29;101749.41;;;21.04;51.93
74615;BME280;63121;51.458;-0.110;2022-11-25T14:34:00;101755.50;;;21.05;52.69